sensor_id;sensor_type;location;lat;lon;timestamp;temperature;humidity
42973;DHT22;28610;51.214;6.962;2022-07-23T00:02:40;17.50;99.90
42973;DHT22;28610;51.214;6.962;2022-07-23T00:05:26;17.60;99.90
42973;DHT22;28610;51.214;6.962;2022-07-23T00:08:12;17.50;99.90
42973;DHT22;28610;51.214;6.962;2022-07-23T00:10:57;17.50;99.80
42973;DHT22;28610;51.214;6.962;2022-07-23T00:13:43;17.40;99.90
42973;DHT22;28610;51.214;6.962;2022-07-23T00:16:28;17.40;99.60
42973;DHT22;28610;51.214;6.962;2022-07-23T00:19:13;17.50;99.30
42973;DHT22;28610;51.214;6.962;2022-07-23T00:22:00;17.40;98.90
42973;DHT22;28610;51.214;6.962;2022-07-23T00:24:45;17.40;99.10
42973;DHT22;28610;51.214;6.962;2022-07-23T00:27:31;17.30;99.20
42973;DHT22;28610;51.214;6.962;2022-07-23T00:30:16;17.40;99.80
42973;DHT22;28610;51.214;6.962;2022-07-23T00:33:03;17.50;99.90
42973;DHT22;28610;51.214;6.962;2022-07-23T00:35:49;17.40;99.40
42973;DHT22;28610;51.214;6.962;2022-07-23T00:38:36;17.50;99.10
42973;DHT22;28610;51.214;6.962;2022-07-23T00:41:21;17.40;99.00
42973;DHT22;28610;51.214;6.962;2022-07-23T00:44:18;17.40;99.20
42973;DHT22;28610;51.214;6.962;2022-07-23T00:47:03;17.30;98.40
42973;DHT22;28610;51.214;6.962;2022-07-23T00:49:49;17.30;98.70
42973;DHT22;28610;51.214;6.962;2022-07-23T00:52:35;17.40;98.60
42973;DHT22;28610;51.214;6.962;2022-07-23T00:55:22;17.40;98.30
42973;DHT22;28610;51.214;6.962;2022-07-23T00:58:09;17.30;98.30
42973;DHT22;28610;51.214;6.962;2022-07-23T01:00:54;17.30;99.00
42973;DHT22;28610;51.214;6.962;2022-07-23T01:03:39;17.40;98.70
42973;DHT22;28610;51.214;6.962;2022-07-23T01:06:25;17.50;98.60
42973;DHT22;28610;51.214;6.962;2022-07-23T01:09:11;17.30;98.30
42973;DHT22;28610;51.214;6.962;2022-07-23T01:11:58;17.40;98.60
42973;DHT22;28610;51.214;6.962;2022-07-23T01:14:44;17.30;98.40
42973;DHT22;28610;51.214;6.962;2022-07-23T01:17:29;17.40;98.20
42973;DHT22;28610;51.214;6.962;2022-07-23T01:20:15;17.20;98.60
42973;DHT22;28610;51.214;6.962;2022-07-23T01:23:02;17.20;98.50
42973;DHT22;28610;51.214;6.962;2022-07-23T01:25:48;17.20;99.10
42973;DHT22;28610;51.214;6.962;2022-07-23T01:28:33;17.20;99.40
42973;DHT22;28610;51.214;6.962;2022-07-23T01:31:19;17.20;99.10
42973;DHT22;28610;51.214;6.962;2022-07-23T01:34:04;17.30;99.10
42973;DHT22;28610;51.214;6.962;2022-07-23T01:36:51;17.30;99.10
42973;DHT22;28610;51.214;6.962;2022-07-23T01:39:38;17.30;98.90
42973;DHT22;28610;51.214;6.962;2022-07-23T01:42:24;17.30;99.50
42973;DHT22;28610;51.214;6.962;2022-07-23T01:45:10;17.30;99.70
42973;DHT22;28610;51.214;6.962;2022-07-23T01:47:55;17.20;99.40
42973;DHT22;28610;51.214;6.962;2022-07-23T01:50:41;17.20;99.90
42973;DHT22;28610;51.214;6.962;2022-07-23T01:53:26;17.30;99.80
42973;DHT22;28610;51.214;6.962;2022-07-23T01:56:13;17.30;99.90
42973;DHT22;28610;51.214;6.962;2022-07-23T01:58:59;17.20;99.90
42973;DHT22;28610;51.214;6.962;2022-07-23T02:01:44;17.20;99.90
42973;DHT22;28610;51.214;6.962;2022-07-23T02:04:30;17.10;99.90
42973;DHT22;28610;51.214;6.962;2022-07-23T02:07:17;17.10;99.90
42973;DHT22;28610;51.214;6.962;2022-07-23T02:10:03;17.00;99.90
42973;DHT22;28610;51.214;6.962;2022-07-23T02:12:50;17.00;99.90
42973;DHT22;28610;51.214;6.962;2022-07-23T02:15:35;16.80;99.90
42973;DHT22;28610;51.214;6.962;2022-07-23T02:18:20;16.80;99.90
42973;DHT22;28610;51.214;6.962;2022-07-23T02:21:06;16.80;99.90
42973;DHT22;28610;51.214;6.962;2022-07-23T02:23:51;16.70;99.90
42973;DHT22;28610;51.214;6.962;2022-07-23T02:26:37;16.70;99.90
42973;DHT22;28610;51.214;6.962;2022-07-23T02:29:23;16.70;99.90
42973;DHT22;28610;51.214;6.962;2022-07-23T02:32:09;16.60;99.90
42973;DHT22;28610;51.214;6.962;2022-07-23T02:34:55;16.60;99.90
42973;DHT22;28610;51.214;6.962;2022-07-23T02:37:40;16.60;99.90
42973;DHT22;28610;51.214;6.962;2022-07-23T02:40:25;16.60;99.90
42973;DHT22;28610;51.214;6.962;2022-07-23T02:43:11;16.50;99.90
42973;DHT22;28610;51.214;6.962;2022-07-23T02:45:58;16.40;99.90
42973;DHT22;28610;51.214;6.962;2022-07-23T02:48:43;16.50;99.90
42973;DHT22;28610;51.214;6.962;2022-07-23T02:51:28;16.40;99.90
42973;DHT22;28610;51.214;6.962;2022-07-23T02:54:14;16.40;99.90
42973;DHT22;28610;51.214;6.962;2022-07-23T02:57:00;16.50;99.90
42973;DHT22;28610;51.214;6.962;2022-07-23T02:59:45;16.50;99.90
42973;DHT22;28610;51.214;6.962;2022-07-23T03:02:32;16.50;99.90
42973;DHT22;28610;51.214;6.962;2022-07-23T03:05:17;16.50;99.90
42973;DHT22;28610;51.214;6.962;2022-07-23T03:08:03;16.50;99.90
42973;DHT22;28610;51.214;6.962;2022-07-23T03:10:49;16.50;99.90
42973;DHT22;28610;51.214;6.962;2022-07-23T03:13:34;16.50;99.90
42973;DHT22;28610;51.214;6.962;2022-07-23T03:16:20;16.40;99.90
42973;DHT22;28610;51.214;6.962;2022-07-23T03:19:07;16.30;99.90
42973;DHT22;28610;51.214;6.962;2022-07-23T03:21:52;16.30;99.90
42973;DHT22;28610;51.214;6.962;2022-07-23T03:24:37;16.20;99.90
42973;DHT22;28610;51.214;6.962;2022-07-23T03:27:42;16.30;99.90
42973;DHT22;28610;51.214;6.962;2022-07-23T03:30:29;16.20;99.90
42973;DHT22;28610;51.214;6.962;2022-07-23T03:33:15;16.20;99.90
42973;DHT22;28610;51.214;6.962;2022-07-23T03:36:02;16.20;99.90
42973;DHT22;28610;51.214;6.962;2022-07-23T03:38:48;16.20;99.90
42973;DHT22;28610;51.214;6.962;2022-07-23T03:41:34;16.20;99.90
42973;DHT22;28610;51.214;6.962;2022-07-23T03:44:20;16.10;99.90
42973;DHT22;28610;51.214;6.962;2022-07-23T03:47:06;16.00;99.90
42973;DHT22;28610;51.214;6.962;2022-07-23T03:49:51;16.00;99.90
42973;DHT22;28610;51.214;6.962;2022-07-23T03:52:38;16.10;99.90
42973;DHT22;28610;51.214;6.962;2022-07-23T03:55:23;16.00;99.90
42973;DHT22;28610;51.214;6.962;2022-07-23T03:58:09;16.00;99.90
42973;DHT22;28610;51.214;6.962;2022-07-23T04:00:54;16.00;99.90
42973;DHT22;28610;51.214;6.962;2022-07-23T04:03:40;16.00;99.90
42973;DHT22;28610;51.214;6.962;2022-07-23T04:06:25;16.00;99.90
42973;DHT22;28610;51.214;6.962;2022-07-23T04:09:12;16.00;99.90
42973;DHT22;28610;51.214;6.962;2022-07-23T04:11:57;16.10;99.90
42973;DHT22;28610;51.214;6.962;2022-07-23T04:14:43;16.00;99.90
42973;DHT22;28610;51.214;6.962;2022-07-23T04:17:28;16.10;99.90
42973;DHT22;28610;51.214;6.962;2022-07-23T04:20:14;16.10;99.90
42973;DHT22;28610;51.214;6.962;2022-07-23T04:22:59;16.10;99.90
42973;DHT22;28610;51.214;6.962;2022-07-23T04:25:46;16.10;99.90
42973;DHT22;28610;51.214;6.962;2022-07-23T04:28:31;16.20;99.90
42973;DHT22;28610;51.214;6.962;2022-07-23T04:31:17;16.20;99.90
42973;DHT22;28610;51.214;6.962;2022-07-23T04:34:02;16.20;99.90
42973;DHT22;28610;51.214;6.962;2022-07-23T04:36:48;16.30;99.90
42973;DHT22;28610;51.214;6.962;2022-07-23T04:39:33;16.30;99.90
42973;DHT22;28610;51.214;6.962;2022-07-23T04:42:20;16.30;99.90
42973;DHT22;28610;51.214;6.962;2022-07-23T04:45:06;16.40;99.90
42973;DHT22;28610;51.214;6.962;2022-07-23T04:47:52;16.50;99.90
42973;DHT22;28610;51.214;6.962;2022-07-23T04:50:38;16.50;99.90
42973;DHT22;28610;51.214;6.962;2022-07-23T04:53:23;16.60;99.90
42973;DHT22;28610;51.214;6.962;2022-07-23T04:56:09;17.60;99.90
42973;DHT22;28610;51.214;6.962;2022-07-23T04:58:55;18.00;99.20
42973;DHT22;28610;51.214;6.962;2022-07-23T05:01:40;18.50;97.90
42973;DHT22;28610;51.214;6.962;2022-07-23T05:04:27;18.90;95.90
42973;DHT22;28610;51.214;6.962;2022-07-23T05:07:12;19.00;95.20
42973;DHT22;28610;51.214;6.962;2022-07-23T05:09:58;19.40;94.20
42973;DHT22;28610;51.214;6.962;2022-07-23T05:12:43;19.90;93.50
42973;DHT22;28610;51.214;6.962;2022-07-23T05:15:30;20.20;92.30
42973;DHT22;28610;51.214;6.962;2022-07-23T05:18:15;20.40;91.60
42973;DHT22;28610;51.214;6.962;2022-07-23T05:21:01;20.90;91.30
42973;DHT22;28610;51.214;6.962;2022-07-23T05:23:46;21.00;89.50
42973;DHT22;28610;51.214;6.962;2022-07-23T05:26:32;21.40;88.20
42973;DHT22;28610;51.214;6.962;2022-07-23T05:29:17;21.30;88.10
42973;DHT22;28610;51.214;6.962;2022-07-23T05:32:05;21.30;87.90
42973;DHT22;28610;51.214;6.962;2022-07-23T05:34:50;21.60;86.10
42973;DHT22;28610;51.214;6.962;2022-07-23T05:37:36;22.00;84.50
42973;DHT22;28610;51.214;6.962;2022-07-23T05:40:21;22.00;83.90
42973;DHT22;28610;51.214;6.962;2022-07-23T05:43:07;22.20;83.90
42973;DHT22;28610;51.214;6.962;2022-07-23T05:45:52;22.20;81.40
42973;DHT22;28610;51.214;6.962;2022-07-23T05:48:39;22.00;80.90
42973;DHT22;28610;51.214;6.962;2022-07-23T05:51:26;22.10;81.40
42973;DHT22;28610;51.214;6.962;2022-07-23T05:54:11;22.20;81.00
42973;DHT22;28610;51.214;6.962;2022-07-23T05:56:56;22.30;79.60
42973;DHT22;28610;51.214;6.962;2022-07-23T05:59:42;22.50;79.70
42973;DHT22;28610;51.214;6.962;2022-07-23T06:02:27;22.50;79.00
42973;DHT22;28610;51.214;6.962;2022-07-23T06:05:14;22.70;76.80
42973;DHT22;28610;51.214;6.962;2022-07-23T06:08:00;22.90;77.20
42973;DHT22;28610;51.214;6.962;2022-07-23T06:10:45;23.10;74.40
42973;DHT22;28610;51.214;6.962;2022-07-23T06:13:31;23.50;74.20
42973;DHT22;28610;51.214;6.962;2022-07-23T06:16:16;23.50;72.10
42973;DHT22;28610;51.214;6.962;2022-07-23T06:19:02;23.60;70.30
42973;DHT22;28610;51.214;6.962;2022-07-23T06:21:49;23.60;73.00
42973;DHT22;28610;51.214;6.962;2022-07-23T06:24:34;24.00;68.60
42973;DHT22;28610;51.214;6.962;2022-07-23T06:27:20;24.00;70.00
42973;DHT22;28610;51.214;6.962;2022-07-23T06:30:06;23.60;69.70
42973;DHT22;28610;51.214;6.962;2022-07-23T06:32:52;23.50;71.50
42973;DHT22;28610;51.214;6.962;2022-07-23T06:35:38;23.20;72.00
42973;DHT22;28610;51.214;6.962;2022-07-23T06:38:24;22.50;75.70
42973;DHT22;28610;51.214;6.962;2022-07-23T06:41:09;22.40;75.80
42973;DHT22;28610;51.214;6.962;2022-07-23T06:43:55;22.20;75.70
42973;DHT22;28610;51.214;6.962;2022-07-23T06:46:40;22.20;79.90
42973;DHT22;28610;51.214;6.962;2022-07-23T06:49:26;21.60;80.40
42973;DHT22;28610;51.214;6.962;2022-07-23T06:52:11;21.30;83.20
42973;DHT22;28610;51.214;6.962;2022-07-23T06:54:58;21.00;83.40
42973;DHT22;28610;51.214;6.962;2022-07-23T06:57:43;21.10;86.30
42973;DHT22;28610;51.214;6.962;2022-07-23T07:00:29;21.10;86.40
42973;DHT22;28610;51.214;6.962;2022-07-23T07:03:16;21.90;81.90
42973;DHT22;28610;51.214;6.962;2022-07-23T07:06:02;23.30;74.70
42973;DHT22;28610;51.214;6.962;2022-07-23T07:08:47;24.20;68.70
42973;DHT22;28610;51.214;6.962;2022-07-23T07:11:34;25.00;64.00
42973;DHT22;28610;51.214;6.962;2022-07-23T07:14:20;25.60;61.40
42973;DHT22;28610;51.214;6.962;2022-07-23T07:17:05;25.60;57.90
42973;DHT22;28610;51.214;6.962;2022-07-23T07:19:51;25.70;56.60
42973;DHT22;28610;51.214;6.962;2022-07-23T07:22:36;26.10;56.30
42973;DHT22;28610;51.214;6.962;2022-07-23T07:25:22;26.00;53.40
42973;DHT22;28610;51.214;6.962;2022-07-23T07:28:09;26.40;54.80
42973;DHT22;28610;51.214;6.962;2022-07-23T07:30:54;26.70;53.00
42973;DHT22;28610;51.214;6.962;2022-07-23T07:33:39;27.00;50.50
42973;DHT22;28610;51.214;6.962;2022-07-23T07:36:25;27.20;49.80
42973;DHT22;28610;51.214;6.962;2022-07-23T07:39:11;27.20;47.80
42973;DHT22;28610;51.214;6.962;2022-07-23T07:41:56;27.80;46.50
42973;DHT22;28610;51.214;6.962;2022-07-23T07:44:43;28.10;46.10
42973;DHT22;28610;51.214;6.962;2022-07-23T07:47:28;28.40;43.50
42973;DHT22;28610;51.214;6.962;2022-07-23T07:50:14;27.80;45.80
42973;DHT22;28610;51.214;6.962;2022-07-23T07:52:59;27.50;44.80
42973;DHT22;28610;51.214;6.962;2022-07-23T07:55:45;28.30;44.50
42973;DHT22;28610;51.214;6.962;2022-07-23T07:58:30;28.40;44.20
42973;DHT22;28610;51.214;6.962;2022-07-23T08:01:17;28.10;41.90
42973;DHT22;28610;51.214;6.962;2022-07-23T08:04:04;27.80;43.40
42973;DHT22;28610;51.214;6.962;2022-07-23T08:06:49;28.20;43.20
42973;DHT22;28610;51.214;6.962;2022-07-23T08:09:34;28.70;42.30
42973;DHT22;28610;51.214;6.962;2022-07-23T08:12:20;29.00;40.50
42973;DHT22;28610;51.214;6.962;2022-07-23T08:15:06;28.90;39.50
42973;DHT22;28610;51.214;6.962;2022-07-23T08:17:53;29.10;40.10
42973;DHT22;28610;51.214;6.962;2022-07-23T08:20:38;30.20;38.40
42973;DHT22;28610;51.214;6.962;2022-07-23T08:23:24;29.90;37.60
42973;DHT22;28610;51.214;6.962;2022-07-23T08:26:09;29.60;36.70
42973;DHT22;28610;51.214;6.962;2022-07-23T08:28:55;29.10;39.20
42973;DHT22;28610;51.214;6.962;2022-07-23T08:31:40;28.20;39.60
42973;DHT22;28610;51.214;6.962;2022-07-23T08:34:27;27.90;40.70
42973;DHT22;28610;51.214;6.962;2022-07-23T08:37:13;27.90;42.90
42973;DHT22;28610;51.214;6.962;2022-07-23T08:39:58;28.30;39.30
42973;DHT22;28610;51.214;6.962;2022-07-23T08:42:46;28.30;38.40
42973;DHT22;28610;51.214;6.962;2022-07-23T08:45:36;29.10;39.50
42973;DHT22;28610;51.214;6.962;2022-07-23T08:48:23;29.20;36.10
42973;DHT22;28610;51.214;6.962;2022-07-23T08:51:10;29.70;34.70
42973;DHT22;28610;51.214;6.962;2022-07-23T08:53:56;29.90;34.60
42973;DHT22;28610;51.214;6.962;2022-07-23T08:56:42;29.90;34.00
42973;DHT22;28610;51.214;6.962;2022-07-23T08:59:28;29.60;34.50
42973;DHT22;28610;51.214;6.962;2022-07-23T09:02:16;29.50;33.90
42973;DHT22;28610;51.214;6.962;2022-07-23T09:05:01;28.60;35.50
42973;DHT22;28610;51.214;6.962;2022-07-23T09:08:08;28.70;37.20
42973;DHT22;28610;51.214;6.962;2022-07-23T09:10:55;27.60;38.00
42973;DHT22;28610;51.214;6.962;2022-07-23T09:13:42;27.70;39.30
42973;DHT22;28610;51.214;6.962;2022-07-23T09:16:30;27.00;41.40
42973;DHT22;28610;51.214;6.962;2022-07-23T09:19:15;27.10;41.40
42973;DHT22;28610;51.214;6.962;2022-07-23T09:22:16;26.90;39.40
42973;DHT22;28610;51.214;6.962;2022-07-23T09:25:08;26.80;41.80
42973;DHT22;28610;51.214;6.962;2022-07-23T09:27:56;28.00;37.20
42973;DHT22;28610;51.214;6.962;2022-07-23T09:30:42;29.40;34.70
42973;DHT22;28610;51.214;6.962;2022-07-23T09:33:33;30.60;33.00
42973;DHT22;28610;51.214;6.962;2022-07-23T09:36:36;30.60;30.90
42973;DHT22;28610;51.214;6.962;2022-07-23T09:39:25;31.20;31.00
42973;DHT22;28610;51.214;6.962;2022-07-23T09:42:18;31.30;30.30
42973;DHT22;28610;51.214;6.962;2022-07-23T09:45:10;30.90;28.90
42973;DHT22;28610;51.214;6.962;2022-07-23T09:48:10;31.70;29.50
42973;DHT22;28610;51.214;6.962;2022-07-23T09:51:02;31.70;28.90
42973;DHT22;28610;51.214;6.962;2022-07-23T09:53:48;31.10;30.40
42973;DHT22;28610;51.214;6.962;2022-07-23T09:56:33;30.90;29.90
42973;DHT22;28610;51.214;6.962;2022-07-23T09:59:26;31.40;29.50
42973;DHT22;28610;51.214;6.962;2022-07-23T10:02:12;31.30;27.80
42973;DHT22;28610;51.214;6.962;2022-07-23T10:04:59;31.60;29.10
42973;DHT22;28610;51.214;6.962;2022-07-23T10:07:46;31.70;28.20
42973;DHT22;28610;51.214;6.962;2022-07-23T10:10:31;32.40;28.40
42973;DHT22;28610;51.214;6.962;2022-07-23T10:13:17;32.10;27.80
42973;DHT22;28610;51.214;6.962;2022-07-23T10:16:21;31.40;26.60
42973;DHT22;28610;51.214;6.962;2022-07-23T10:19:07;32.00;28.50
42973;DHT22;28610;51.214;6.962;2022-07-23T10:21:55;32.20;28.60
42973;DHT22;28610;51.214;6.962;2022-07-23T10:25:08;32.00;28.40
42973;DHT22;28610;51.214;6.962;2022-07-23T10:28:05;31.40;29.40
42973;DHT22;28610;51.214;6.962;2022-07-23T10:31:05;30.50;31.60
42973;DHT22;28610;51.214;6.962;2022-07-23T10:34:05;30.50;30.00
42973;DHT22;28610;51.214;6.962;2022-07-23T10:36:56;30.10;33.50
42973;DHT22;28610;51.214;6.962;2022-07-23T10:39:42;29.20;34.80
42973;DHT22;28610;51.214;6.962;2022-07-23T10:42:33;28.60;34.60
42973;DHT22;28610;51.214;6.962;2022-07-23T10:45:27;28.40;34.60
42973;DHT22;28610;51.214;6.962;2022-07-23T10:48:14;27.70;37.70
42973;DHT22;28610;51.214;6.962;2022-07-23T10:51:09;27.30;38.70
42973;DHT22;28610;51.214;6.962;2022-07-23T10:53:57;27.00;39.00
42973;DHT22;28610;51.214;6.962;2022-07-23T10:56:50;27.20;38.90
42973;DHT22;28610;51.214;6.962;2022-07-23T11:00:16;27.40;38.30
42973;DHT22;28610;51.214;6.962;2022-07-23T11:03:03;27.60;38.60
42973;DHT22;28610;51.214;6.962;2022-07-23T11:05:51;27.40;39.20
42973;DHT22;28610;51.214;6.962;2022-07-23T11:08:37;27.60;38.90
42973;DHT22;28610;51.214;6.962;2022-07-23T11:11:23;27.40;39.60
42973;DHT22;28610;51.214;6.962;2022-07-23T11:14:10;27.10;38.50
42973;DHT22;28610;51.214;6.962;2022-07-23T11:16:56;27.00;38.30
42973;DHT22;28610;51.214;6.962;2022-07-23T11:23:12;26.80;38.50
42973;DHT22;28610;51.214;6.962;2022-07-23T11:25:58;27.20;38.80
42973;DHT22;28610;51.214;6.962;2022-07-23T11:28:43;27.20;39.60
42973;DHT22;28610;51.214;6.962;2022-07-23T11:31:29;27.20;39.10
42973;DHT22;28610;51.214;6.962;2022-07-23T11:34:28;27.50;38.20
42973;DHT22;28610;51.214;6.962;2022-07-23T11:37:31;27.10;38.30
42973;DHT22;28610;51.214;6.962;2022-07-23T11:40:17;26.90;38.00
42973;DHT22;28610;51.214;6.962;2022-07-23T11:43:06;26.80;38.30
42973;DHT22;28610;51.214;6.962;2022-07-23T11:45:53;26.70;38.50
42973;DHT22;28610;51.214;6.962;2022-07-23T11:48:41;26.70;38.70
42973;DHT22;28610;51.214;6.962;2022-07-23T11:51:27;26.70;39.60
42973;DHT22;28610;51.214;6.962;2022-07-23T11:54:12;26.70;38.40
42973;DHT22;28610;51.214;6.962;2022-07-23T11:56:58;27.00;39.30
42973;DHT22;28610;51.214;6.962;2022-07-23T11:59:46;27.20;37.40
42973;DHT22;28610;51.214;6.962;2022-07-23T12:02:32;26.90;36.60
42973;DHT22;28610;51.214;6.962;2022-07-23T12:05:19;26.80;36.90
42973;DHT22;28610;51.214;6.962;2022-07-23T12:08:06;27.00;39.00
42973;DHT22;28610;51.214;6.962;2022-07-23T12:10:52;27.10;37.90
42973;DHT22;28610;51.214;6.962;2022-07-23T12:13:37;26.90;39.00
42973;DHT22;28610;51.214;6.962;2022-07-23T12:16:24;27.30;38.10
42973;DHT22;28610;51.214;6.962;2022-07-23T12:19:10;27.30;37.20
42973;DHT22;28610;51.214;6.962;2022-07-23T12:21:55;27.20;38.40
42973;DHT22;28610;51.214;6.962;2022-07-23T12:24:57;26.80;37.90
42973;DHT22;28610;51.214;6.962;2022-07-23T12:27:44;26.30;37.80
42973;DHT22;28610;51.214;6.962;2022-07-23T12:30:31;26.40;37.50
42973;DHT22;28610;51.214;6.962;2022-07-23T12:33:23;26.60;39.00
42973;DHT22;28610;51.214;6.962;2022-07-23T12:36:09;26.70;36.60
42973;DHT22;28610;51.214;6.962;2022-07-23T12:38:56;27.00;36.20
42973;DHT22;28610;51.214;6.962;2022-07-23T12:41:50;26.80;35.70
42973;DHT22;28610;51.214;6.962;2022-07-23T12:44:36;26.90;35.80
42973;DHT22;28610;51.214;6.962;2022-07-23T12:47:21;27.20;36.00
42973;DHT22;28610;51.214;6.962;2022-07-23T12:50:08;27.30;35.30
42973;DHT22;28610;51.214;6.962;2022-07-23T12:53:16;27.30;37.60
42973;DHT22;28610;51.214;6.962;2022-07-23T12:56:05;27.20;38.30
42973;DHT22;28610;51.214;6.962;2022-07-23T12:58:52;27.40;36.40
42973;DHT22;28610;51.214;6.962;2022-07-23T13:01:39;27.60;36.20
42973;DHT22;28610;51.214;6.962;2022-07-23T13:04:25;27.60;34.00
42973;DHT22;28610;51.214;6.962;2022-07-23T13:07:12;27.60;34.10
42973;DHT22;28610;51.214;6.962;2022-07-23T13:09:57;27.00;34.20
42973;DHT22;28610;51.214;6.962;2022-07-23T13:12:43;27.20;33.70
42973;DHT22;28610;51.214;6.962;2022-07-23T13:15:28;27.20;33.70
42973;DHT22;28610;51.214;6.962;2022-07-23T13:18:14;27.10;34.00
42973;DHT22;28610;51.214;6.962;2022-07-23T13:21:01;27.50;33.30
42973;DHT22;28610;51.214;6.962;2022-07-23T13:23:48;27.20;34.00
42973;DHT22;28610;51.214;6.962;2022-07-23T13:26:33;26.90;34.70
42973;DHT22;28610;51.214;6.962;2022-07-23T13:29:19;27.20;35.60
42973;DHT22;28610;51.214;6.962;2022-07-23T13:32:05;27.10;34.80
42973;DHT22;28610;51.214;6.962;2022-07-23T13:34:50;27.00;33.80
42973;DHT22;28610;51.214;6.962;2022-07-23T13:37:35;26.70;36.00
42973;DHT22;28610;51.214;6.962;2022-07-23T13:40:22;27.00;36.30
42973;DHT22;28610;51.214;6.962;2022-07-23T13:43:08;27.00;36.30
42973;DHT22;28610;51.214;6.962;2022-07-23T13:45:54;27.20;36.50
42973;DHT22;28610;51.214;6.962;2022-07-23T13:48:39;27.20;36.00
42973;DHT22;28610;51.214;6.962;2022-07-23T13:51:25;27.00;35.20
42973;DHT22;28610;51.214;6.962;2022-07-23T13:54:10;27.20;36.00
42973;DHT22;28610;51.214;6.962;2022-07-23T13:56:57;27.30;36.00
42973;DHT22;28610;51.214;6.962;2022-07-23T13:59:43;27.30;36.70
42973;DHT22;28610;51.214;6.962;2022-07-23T14:02:29;27.40;35.20
42973;DHT22;28610;51.214;6.962;2022-07-23T14:05:14;27.20;35.80
42973;DHT22;28610;51.214;6.962;2022-07-23T14:08:00;27.10;35.90
42973;DHT22;28610;51.214;6.962;2022-07-23T14:10:45;27.30;35.90
42973;DHT22;28610;51.214;6.962;2022-07-23T14:13:32;27.00;36.80
42973;DHT22;28610;51.214;6.962;2022-07-23T14:16:18;27.40;36.10
42973;DHT22;28610;51.214;6.962;2022-07-23T14:19:03;27.20;36.60
42973;DHT22;28610;51.214;6.962;2022-07-23T14:21:49;27.20;36.30
42973;DHT22;28610;51.214;6.962;2022-07-23T14:24:34;27.30;36.40
42973;DHT22;28610;51.214;6.962;2022-07-23T14:27:19;26.90;36.60
42973;DHT22;28610;51.214;6.962;2022-07-23T14:30:09;27.20;36.50
42973;DHT22;28610;51.214;6.962;2022-07-23T14:32:55;27.30;36.90
42973;DHT22;28610;51.214;6.962;2022-07-23T14:35:40;26.90;35.70
42973;DHT22;28610;51.214;6.962;2022-07-23T14:38:25;27.00;35.80
42973;DHT22;28610;51.214;6.962;2022-07-23T14:41:11;27.10;36.70
42973;DHT22;28610;51.214;6.962;2022-07-23T14:43:57;27.40;35.50
42973;DHT22;28610;51.214;6.962;2022-07-23T14:46:44;27.70;36.40
42973;DHT22;28610;51.214;6.962;2022-07-23T14:49:29;27.40;35.10
42973;DHT22;28610;51.214;6.962;2022-07-23T14:52:15;27.10;37.20
42973;DHT22;28610;51.214;6.962;2022-07-23T14:55:00;27.30;37.20
42973;DHT22;28610;51.214;6.962;2022-07-23T14:57:46;27.10;37.10
42973;DHT22;28610;51.214;6.962;2022-07-23T15:00:32;26.80;37.60
42973;DHT22;28610;51.214;6.962;2022-07-23T15:03:18;26.80;38.60
42973;DHT22;28610;51.214;6.962;2022-07-23T15:06:04;26.70;38.50
42973;DHT22;28610;51.214;6.962;2022-07-23T15:08:50;26.70;37.30
42973;DHT22;28610;51.214;6.962;2022-07-23T15:11:35;27.00;37.30
42973;DHT22;28610;51.214;6.962;2022-07-23T15:14:21;27.00;36.20
42973;DHT22;28610;51.214;6.962;2022-07-23T15:17:07;27.20;35.80
42973;DHT22;28610;51.214;6.962;2022-07-23T15:19:53;27.10;36.50
42973;DHT22;28610;51.214;6.962;2022-07-23T15:22:39;27.20;35.90
42973;DHT22;28610;51.214;6.962;2022-07-23T15:25:24;27.00;37.10
42973;DHT22;28610;51.214;6.962;2022-07-23T15:28:10;27.10;36.30
42973;DHT22;28610;51.214;6.962;2022-07-23T15:30:55;26.90;35.70
42973;DHT22;28610;51.214;6.962;2022-07-23T15:33:41;26.50;37.20
42973;DHT22;28610;51.214;6.962;2022-07-23T15:36:27;26.80;36.30
42973;DHT22;28610;51.214;6.962;2022-07-23T15:39:13;26.90;36.50
42973;DHT22;28610;51.214;6.962;2022-07-23T15:41:59;26.90;36.90
42973;DHT22;28610;51.214;6.962;2022-07-23T15:44:44;26.80;36.90
42973;DHT22;28610;51.214;6.962;2022-07-23T15:47:30;26.90;37.00
42973;DHT22;28610;51.214;6.962;2022-07-23T15:50:15;27.00;36.00
42973;DHT22;28610;51.214;6.962;2022-07-23T15:53:02;27.10;35.90
42973;DHT22;28610;51.214;6.962;2022-07-23T15:55:47;27.30;36.20
42973;DHT22;28610;51.214;6.962;2022-07-23T15:58:33;27.10;36.80
42973;DHT22;28610;51.214;6.962;2022-07-23T16:01:18;26.90;36.80
42973;DHT22;28610;51.214;6.962;2022-07-23T16:04:04;26.70;36.50
42973;DHT22;28610;51.214;6.962;2022-07-23T16:06:50;26.60;37.40
42973;DHT22;28610;51.214;6.962;2022-07-23T16:09:37;26.60;36.60
42973;DHT22;28610;51.214;6.962;2022-07-23T16:12:22;26.40;37.20
42973;DHT22;28610;51.214;6.962;2022-07-23T16:15:08;26.30;37.70
42973;DHT22;28610;51.214;6.962;2022-07-23T16:17:54;26.40;38.70
42973;DHT22;28610;51.214;6.962;2022-07-23T16:20:40;26.50;39.00
42973;DHT22;28610;51.214;6.962;2022-07-23T16:23:25;26.60;38.50
42973;DHT22;28610;51.214;6.962;2022-07-23T16:26:13;26.50;39.40
42973;DHT22;28610;51.214;6.962;2022-07-23T16:28:59;26.50;37.10
42973;DHT22;28610;51.214;6.962;2022-07-23T16:31:44;26.40;37.50
42973;DHT22;28610;51.214;6.962;2022-07-23T16:34:30;26.30;37.80
42973;DHT22;28610;51.214;6.962;2022-07-23T16:37:15;26.40;37.40
42973;DHT22;28610;51.214;6.962;2022-07-23T16:40:02;26.50;38.60
42973;DHT22;28610;51.214;6.962;2022-07-23T16:42:49;26.70;38.90
42973;DHT22;28610;51.214;6.962;2022-07-23T16:45:34;26.70;38.70
42973;DHT22;28610;51.214;6.962;2022-07-23T16:48:19;26.70;37.40
42973;DHT22;28610;51.214;6.962;2022-07-23T16:51:06;26.70;37.60
42973;DHT22;28610;51.214;6.962;2022-07-23T16:53:51;26.50;37.60
42973;DHT22;28610;51.214;6.962;2022-07-23T16:56:39;26.30;38.30
42973;DHT22;28610;51.214;6.962;2022-07-23T16:59:26;26.30;38.20
42973;DHT22;28610;51.214;6.962;2022-07-23T17:02:12;26.30;37.50
42973;DHT22;28610;51.214;6.962;2022-07-23T17:04:57;26.20;37.70
42973;DHT22;28610;51.214;6.962;2022-07-23T17:07:42;26.00;37.50
42973;DHT22;28610;51.214;6.962;2022-07-23T17:10:28;26.00;38.70
42973;DHT22;28610;51.214;6.962;2022-07-23T17:13:13;26.00;38.60
42973;DHT22;28610;51.214;6.962;2022-07-23T17:16:00;25.90;41.10
42973;DHT22;28610;51.214;6.962;2022-07-23T17:18:46;25.90;39.60
42973;DHT22;28610;51.214;6.962;2022-07-23T17:21:31;25.90;39.60
42973;DHT22;28610;51.214;6.962;2022-07-23T17:24:17;25.90;39.30
42973;DHT22;28610;51.214;6.962;2022-07-23T17:27:02;25.90;39.00
42973;DHT22;28610;51.214;6.962;2022-07-23T17:29:48;25.70;38.80
42973;DHT22;28610;51.214;6.962;2022-07-23T17:32:35;25.70;38.50
42973;DHT22;28610;51.214;6.962;2022-07-23T17:35:20;25.70;39.10
42973;DHT22;28610;51.214;6.962;2022-07-23T17:38:06;25.50;38.90